Time;durP1;ratioP1;P1;durP2;ratioP2;P2;SDS_P1;SDS_P2;PMS_P1;PMS_P2;Temp;Humidity;BMP_temperature;BMP_pressure;BME280_temperature;BME280_humidity;BME280_pressure;Samples;Min_cycle;Max_cycle;Signal;HPM_P1;HPM_P2
2021/12/29 00:01:47;;;;;;;25.80;12.75;;;;;;;-149.78;100.00;50639.66;5115964;28;20028;-71
2021/12/29 00:04:13;;;;;;;25.15;12.55;;;;;;;-149.78;100.00;50627.91;5116092;28;20036;-69
2021/12/29 00:06:39;;;;;;;22.92;9.98;;;;;;;-149.78;100.00;50627.91;5114720;28;20051;-65
2021/12/29 00:09:05;;;;;;;21.75;10.57;;;;;;;-149.78;100.00;50643.56;5114597;28;20031;-64
2021/12/29 00:11:37;;;;;;;18.70;8.77;;;;;;;-149.78;100.00;50622.03;5116288;28;20093;-64
2021/12/29 00:14:02;;;;;;;21.15;8.70;;;;;;;-149.78;100.00;50647.47;5099246;28;20470;-64
2021/12/29 00:16:29;;;;;;;15.93;7.95;;;;;;;-149.78;100.00;50643.56;5116787;28;20064;-64
2021/12/29 00:18:54;;;;;;;20.55;7.10;;;;;;;-149.78;100.00;50655.28;5116679;28;20035;-69
2021/12/29 00:21:20;;;;;;;16.92;6.85;;;;;;;-149.78;100.00;50631.81;5116681;28;20112;-69
2021/12/29 00:23:45;;;;;;;17.70;7.75;;;;;;;-149.78;100.00;50647.47;5098536;28;20031;-69
2021/12/29 00:26:13;;;;;;;19.58;7.38;;;;;;;-149.78;100.00;50639.66;5116620;28;20035;-69
2021/12/29 00:28:39;;;;;;;20.55;7.78;;;;;;;-149.78;100.00;50637.69;5116662;28;20032;-69
2021/12/29 00:31:04;;;;;;;19.33;7.93;;;;;;;-149.78;100.00;50635.72;5116447;28;20104;-69
2021/12/29 00:33:30;;;;;;;14.88;7.45;;;;;;;-149.78;100.00;50655.28;5116365;28;20118;-68
2021/12/29 00:35:56;;;;;;;15.75;8.38;;;;;;;-149.78;100.00;50655.28;5116425;28;20035;-68
2021/12/29 00:38:23;;;;;;;18.98;8.77;;;;;;;-149.78;100.00;50612.25;5116482;28;20032;-64
2021/12/29 00:40:48;;;;;;;15.63;8.85;;;;;;;-149.78;100.00;50637.69;5115355;28;20421;-64
2021/12/29 00:43:15;;;;;;;17.02;8.65;;;;;;;-149.78;100.00;50668.97;5114819;28;20035;-64
2021/12/29 00:45:40;;;;;;;18.98;8.38;;;;;;;-149.78;100.00;50647.47;5112038;28;20047;-64
2021/12/29 00:48:11;;;;;;;17.08;8.38;;;;;;;-149.78;100.00;50647.47;5115737;28;20039;-64
2021/12/29 00:50:38;;;;;;;16.50;8.27;;;;;;;-149.78;100.00;50639.66;5116196;28;20080;-68
2021/12/29 00:53:04;;;;;;;19.08;9.40;;;;;;;-149.78;100.00;50627.91;5116167;28;20589;-68
2021/12/29 00:55:29;;;;;;;21.95;11.45;;;;;;;-149.78;100.00;50645.50;5115924;28;20043;-69
2021/12/29 00:57:55;;;;;;;29.17;13.30;;;;;;;-149.78;100.00;50647.47;5114600;28;20172;-69
2021/12/29 01:00:23;;;;;;;25.67;11.68;;;;;;;-149.78;100.00;50602.47;5115495;28;20036;-69
2021/12/29 01:02:50;;;;;;;25.25;11.57;;;;;;;-149.78;100.00;50631.81;5115433;28;20032;-68
2021/12/29 01:05:18;;;;;;;24.90;11.95;;;;;;;-149.78;100.00;50620.09;5115587;28;20545;-69
2021/12/29 01:07:44;;;;;;;30.98;12.98;;;;;;;-149.78;100.00;50668.97;5115183;28;20114;-68
2021/12/29 01:10:11;;;;;;;27.50;13.48;;;;;;;-149.78;100.00;50651.38;5115686;28;20110;-69
2021/12/29 01:12:38;;;;;;;32.92;14.13;;;;;;;-149.78;100.00;50635.72;5115613;28;20459;-69
2021/12/29 01:15:05;;;;;;;30.80;13.23;;;;;;;-149.78;100.00;50667.03;5115536;28;20204;-64
2021/12/29 01:17:31;;;;;;;35.35;13.50;;;;;;;-149.78;100.00;50667.03;5115749;28;20386;-64
2021/12/29 01:19:58;;;;;;;30.08;13.63;;;;;;;-149.78;100.00;50651.38;5097523;28;20039;-64
2021/12/29 01:22:25;;;;;;;30.00;13.27;;;;;;;-149.78;100.00;50678.75;5115650;28;20109;-64
2021/12/29 01:24:50;;;;;;;28.80;13.25;;;;;;;-149.78;100.00;50678.75;5115333;28;20058;-64
2021/12/29 01:27:17;;;;;;;31.38;13.05;;;;;;;-149.78;100.00;50667.03;5115384;28;20135;-64
2021/12/29 01:29:43;;;;;;;33.60;13.60;;;;;;;-149.78;100.00;50641.59;5115221;28;20039;-64
2021/12/29 01:32:09;;;;;;;29.80;12.95;;;;;;;-149.78;100.00;50678.75;5096889;28;20523;-64
2021/12/29 01:34:35;;;;;;;30.60;12.65;;;;;;;-149.78;100.00;50674.84;5115309;28;20402;-64
2021/12/29 01:37:03;;;;;;;33.78;13.65;;;;;;;-149.78;100.00;50663.13;5115377;28;20035;-64
2021/12/29 01:39:29;;;;;;;31.92;13.75;;;;;;;-149.78;100.00;50651.38;5096959;28;20092;-69
2021/12/29 01:41:57;;;;;;;33.22;13.68;;;;;;;-149.78;100.00;50647.47;5115080;28;20054;-68
2021/12/29 01:44:25;;;;;;;34.72;14.10;;;;;;;-149.78;100.00;50659.19;5096912;28;20084;-68
2021/12/29 01:46:55;;;;;;;32.75;13.05;;;;;;;-149.78;100.00;50670.94;5114548;28;20027;-68
2021/12/29 01:49:20;;;;;;;30.02;12.23;;;;;;;-149.78;100.00;50665.06;5114578;28;20027;-68
2021/12/29 01:51:59;;;;;;;28.35;12.77;;;;;;;-149.78;100.00;50641.59;5113994;28;20039;-69
2021/12/29 01:54:25;;;;;;;29.38;12.15;;;;;;;-149.78;100.00;50667.03;5114275;28;20126;-69
2021/12/29 01:56:57;;;;;;;32.75;12.48;;;;;;;-149.78;100.00;50678.75;5113747;28;20119;-69
2021/12/29 01:59:24;;;;;;;29.63;11.70;;;;;;;-149.78;100.00;50678.75;5114271;28;20558;-69
2021/12/29 02:01:50;;;;;;;28.85;12.18;;;;;;;-149.78;100.00;50678.75;5114310;28;20046;-69
2021/12/29 02:04:20;;;;;;;30.48;11.98;;;;;;;-149.78;100.00;50665.06;5111353;28;20085;-68
2021/12/29 02:06:46;;;;;;;24.00;10.00;;;;;;;-149.78;100.00;50690.50;5112851;28;20447;-69
2021/12/29 02:09:12;;;;;;;20.40;9.75;;;;;;;-149.78;100.00;50702.22;5113639;28;20078;-64
2021/12/29 02:11:38;;;;;;;21.90;9.80;;;;;;;-149.78;100.00;50667.03;5095313;28;20118;-64
2021/12/29 02:14:07;;;;;;;24.77;9.77;;;;;;;-149.78;100.00;50674.84;5113328;28;20046;-64
2021/12/29 02:16:33;;;;;;;19.80;9.25;;;;;;;-149.78;100.00;50663.13;5095423;28;20040;-64
2021/12/29 02:19:05;;;;;;;24.65;9.88;;;;;;;-149.78;100.00;50645.50;5113238;28;20054;-64
2021/12/29 02:21:32;;;;;;;23.52;9.27;;;;;;;-149.78;100.00;50647.47;5113424;28;20034;-64
2021/12/29 02:26:31;;;;;;;21.65;9.05;;;;;;;-149.78;100.00;50643.56;5113469;28;20031;-68
2021/12/29 02:28:57;;;;;;;25.38;9.85;;;;;;;-149.78;100.00;50682.66;5113431;28;20114;-64
2021/12/29 02:31:24;;;;;;;22.13;9.68;;;;;;;-149.78;100.00;50651.38;5112035;28;20032;-64
2021/12/29 02:33:51;;;;;;;21.25;9.25;;;;;;;-149.78;100.00;50678.75;5095205;28;20102;-64
2021/12/29 02:36:19;;;;;;;20.20;9.57;;;;;;;-149.78;100.00;50651.38;5113308;28;20039;-64
2021/12/29 02:38:49;;;;;;;19.95;9.25;;;;;;;-149.78;100.00;50674.84;5113024;28;20471;-64
2021/12/29 02:41:15;;;;;;;23.13;9.52;;;;;;;-149.78;100.00;50643.56;5113363;28;20035;-64
2021/12/29 02:43:41;;;;;;;22.63;9.85;;;;;;;-149.78;100.00;50665.06;5112900;28;20554;-64
2021/12/29 02:46:12;;;;;;;22.08;8.95;;;;;;;-149.78;100.00;50645.50;5113445;28;20047;-64
2021/12/29 02:48:59;;;;;;;22.85;9.43;;;;;;;-149.78;100.00;50680.72;5095030;28;20087;-64
2021/12/29 02:51:32;;;;;;;19.17;9.00;;;;;;;-149.78;100.00;50698.31;5113362;28;20031;-64
2021/12/29 02:53:59;;;;;;;23.13;10.65;;;;;;;-149.78;100.00;50655.28;5095409;28;20382;-64
2021/12/29 02:56:26;;;;;;;20.95;8.95;;;;;;;-149.78;100.00;50682.66;5113236;28;20043;-64
2021/12/29 02:58:53;;;;;;;22.02;9.23;;;;;;;-149.78;100.00;50667.03;5094641;28;20039;-65
2021/12/29 03:01:20;;;;;;;22.02;9.00;;;;;;;-149.78;100.00;50668.97;5113252;28;20490;-69
2021/12/29 03:03:45;;;;;;;21.63;9.00;;;;;;;-149.78;100.00;50627.91;5094554;28;20036;-69
2021/12/29 03:06:12;;;;;;;21.23;8.70;;;;;;;-149.78;100.00;50682.66;5112889;28;20031;-69
2021/12/29 03:08:39;;;;;;;21.23;8.63;;;;;;;-149.78;100.00;50665.06;5065241;28;1306428;-68
2021/12/29 03:11:07;;;;;;;25.27;9.00;;;;;;;-149.78;100.00;50676.81;5113737;28;20035;-69
2021/12/29 03:13:36;;;;;;;20.15;8.77;;;;;;;-149.78;100.00;50684.63;5113420;28;20034;-69
2021/12/29 03:16:03;;;;;;;21.13;9.75;;;;;;;-149.78;100.00;50702.22;5113698;28;20028;-69
2021/12/29 03:18:30;;;;;;;26.00;8.93;;;;;;;-149.78;100.00;50659.19;5113373;28;20028;-69
2021/12/29 03:20:56;;;;;;;23.45;9.82;;;;;;;-149.78;100.00;50717.88;5113463;28;20088;-69
2021/12/29 03:23:22;;;;;;;20.52;8.68;;;;;;;-149.78;100.00;50665.06;5113644;28;20032;-69
2021/12/29 03:25:51;;;;;;;19.10;8.18;;;;;;;-149.78;100.00;50682.66;5095460;28;20498;-69
2021/12/29 03:28:19;;;;;;;20.90;8.73;;;;;;;-149.78;100.00;50680.72;5113430;28;20054;-64
2021/12/29 03:30:49;;;;;;;18.73;7.32;;;;;;;-149.78;100.00;50670.94;5113589;28;20036;-64
2021/12/29 03:33:15;;;;;;;17.50;7.32;;;;;;;-149.78;100.00;50674.84;5113709;28;20119;-64
2021/12/29 03:35:44;;;;;;;17.65;7.05;;;;;;;-149.78;100.00;50663.13;5113413;28;20463;-65
2021/12/29 03:38:13;;;;;;;18.08;7.25;;;;;;;-149.78;100.00;50678.75;5113453;28;20557;-65
2021/12/29 03:40:40;;;;;;;20.48;7.50;;;;;;;-149.78;100.00;50674.84;5113257;28;20039;-64
2021/12/29 03:43:09;;;;;;;17.10;7.13;;;;;;;-149.78;100.00;50682.66;5113477;28;20035;-64
2021/12/29 03:45:37;;;;;;;18.73;6.75;;;;;;;-149.78;100.00;50678.75;5113527;28;20358;-69
2021/12/29 03:48:04;;;;;;;24.50;7.13;;;;;;;-149.78;100.00;50717.88;5113437;28;20486;-69
2021/12/29 03:50:30;;;;;;;15.88;6.85;;;;;;;-149.78;100.00;50657.25;5113475;28;20070;-69
2021/12/29 03:52:56;;;;;;;14.40;6.90;;;;;;;-149.78;100.00;50663.13;5113302;28;20102;-64
2021/12/29 03:55:22;;;;;;;18.42;7.00;;;;;;;-149.78;100.00;50651.38;5113329;28;20031;-64
2021/12/29 03:57:47;;;;;;;16.08;7.10;;;;;;;-149.78;100.00;50682.66;5091984;28;20100;-65
2021/12/29 04:00:16;;;;;;;19.10;7.85;;;;;;;-149.78;100.00;50670.94;5109389;28;20032;-64
2021/12/29 04:02:44;;;;;;;19.42;7.70;;;;;;;-149.78;100.00;50682.66;5112702;28;20027;-64
2021/12/29 04:05:13;;;;;;;20.25;7.65;;;;;;;-149.78;100.00;50641.59;5113116;28;20428;-65
2021/12/29 04:07:39;;;;;;;16.27;7.65;;;;;;;-149.78;100.00;50670.94;5113357;28;20076;-64
2021/12/29 04:10:07;;;;;;;15.82;7.20;;;;;;;-149.78;100.00;50667.03;5112943;28;20395;-64
2021/12/29 04:12:33;;;;;;;23.40;7.82;;;;;;;-149.78;100.00;50663.13;5112925;28;20126;-65
2021/12/29 04:14:59;;;;;;;13.68;6.35;;;;;;;-149.78;100.00;50651.38;5113260;28;20103;-64
2021/12/29 04:17:36;;;;;;;23.65;7.25;;;;;;;-149.78;100.00;50667.03;5113141;28;20122;-64
2021/12/29 04:22:51;;;;;;;18.38;6.80;;;;;;;-149.78;100.00;50676.81;5096317;28;20048;-69
2021/12/29 04:25:23;;;;;;;19.00;7.07;;;;;;;-149.78;100.00;50672.91;5096251;28;20043;-69
2021/12/29 04:27:49;;;;;;;14.35;6.35;;;;;;;-149.78;100.00;50670.94;5115833;28;20039;-69
2021/12/29 04:30:15;;;;;;;16.33;7.45;;;;;;;-149.78;100.00;50667.03;5116625;28;20035;-69
2021/12/29 04:32:41;;;;;;;17.23;6.47;;;;;;;-149.78;100.00;50663.13;5116360;28;20087;-69
2021/12/29 04:35:07;;;;;;;18.45;7.15;;;;;;;-149.78;100.00;50655.28;5116432;28;20043;-69
2021/12/29 04:37:32;;;;;;;21.17;7.40;;;;;;;-149.78;100.00;50690.50;5116489;28;20036;-69
2021/12/29 04:39:58;;;;;;;15.60;7.30;;;;;;;-149.78;100.00;50661.16;5116332;28;20466;-69
2021/12/29 04:42:24;;;;;;;18.40;7.70;;;;;;;-149.78;100.00;50670.94;5116578;28;20482;-69
2021/12/29 04:44:49;;;;;;;20.25;7.85;;;;;;;-149.78;100.00;50620.09;5091323;28;20047;-69
2021/12/29 04:47:15;;;;;;;17.83;7.72;;;;;;;-149.78;100.00;50663.13;5097960;28;20093;-69
2021/12/29 04:49:41;;;;;;;14.05;6.65;;;;;;;-149.78;100.00;50682.66;5116073;28;20031;-65
2021/12/29 04:52:10;;;;;;;17.58;7.80;;;;;;;-149.78;100.00;50678.75;5116144;28;20122;-65
2021/12/29 04:54:38;;;;;;;20.60;7.47;;;;;;;-149.78;100.00;50655.28;5115513;28;20145;-64
2021/12/29 04:57:05;;;;;;;18.95;7.45;;;;;;;-149.78;100.00;50674.84;5115605;28;20047;-69
2021/12/29 04:59:30;;;;;;;17.98;7.40;;;;;;;-149.78;100.00;50655.28;5116044;28;20490;-69
2021/12/29 05:01:56;;;;;;;20.00;7.18;;;;;;;-149.78;100.00;50655.28;5115858;28;20039;-69
2021/12/29 05:04:30;;;;;;;20.25;7.00;;;;;;;-149.78;100.00;50682.66;5115990;28;20039;-69
2021/12/29 05:09:40;;;;;;;21.45;8.40;;;;;;;-149.78;100.00;50627.91;5115556;28;20104;-69
2021/12/29 05:12:07;;;;;;;21.05;7.65;;;;;;;-149.78;100.00;50663.13;5115769;28;20035;-69
2021/12/29 05:14:34;;;;;;;16.83;7.50;;;;;;;-149.78;100.00;50659.19;5115723;28;20036;-69
2021/12/29 05:17:00;;;;;;;16.77;7.78;;;;;;;-149.78;100.00;50674.84;5115814;28;20478;-69
2021/12/29 05:19:26;;;;;;;19.67;8.00;;;;;;;-149.78;100.00;50647.47;5115607;28;20031;-69
2021/12/29 05:21:51;;;;;;;17.85;7.80;;;;;;;-149.78;100.00;50639.66;5115597;28;20054;-69
2021/12/29 05:24:17;;;;;;;14.65;7.47;;;;;;;-149.78;100.00;50651.38;5115521;28;20043;-69
2021/12/29 05:26:42;;;;;;;22.55;8.40;;;;;;;-149.78;100.00;50635.72;5115248;28;20042;-69
2021/12/29 05:29:08;;;;;;;18.02;7.57;;;;;;;-149.78;100.00;50657.25;5115430;28;20505;-69
2021/12/29 05:31:34;;;;;;;19.33;7.90;;;;;;;-149.78;100.00;50678.75;5114311;28;20032;-69
2021/12/29 05:34:00;;;;;;;21.15;8.95;;;;;;;-149.78;100.00;50631.81;5115188;28;20074;-69
2021/12/29 05:36:25;;;;;;;17.13;7.90;;;;;;;-149.78;100.00;50655.28;5115258;28;20438;-69
2021/12/29 05:38:56;;;;;;;20.83;8.90;;;;;;;-149.78;100.00;50682.66;5114853;28;20043;-69
2021/12/29 05:41:22;;;;;;;23.75;9.70;;;;;;;-149.78;100.00;50674.84;5114911;28;20077;-69
2021/12/29 05:43:47;;;;;;;20.33;9.30;;;;;;;-149.78;100.00;50668.97;5096868;28;20147;-69
2021/12/29 05:46:13;;;;;;;22.45;9.98;;;;;;;-149.78;100.00;50655.28;5115018;28;20434;-69
2021/12/29 05:48:39;;;;;;;26.77;9.45;;;;;;;-149.78;100.00;50667.03;5115006;28;20498;-69
2021/12/29 05:51:05;;;;;;;23.52;9.85;;;;;;;-149.78;100.00;50659.19;5115109;28;20039;-64
2021/12/29 05:53:31;;;;;;;26.08;10.85;;;;;;;-149.78;100.00;50653.34;5114981;28;20358;-64
2021/12/29 05:55:56;;;;;;;22.90;9.68;;;;;;;-149.78;100.00;50643.56;5096731;28;20093;-65
2021/12/29 05:58:22;;;;;;;22.65;9.80;;;;;;;-149.78;100.00;50639.66;5114863;28;20036;-64
2021/12/29 06:00:48;;;;;;;23.58;10.23;;;;;;;-149.78;100.00;50694.41;5114654;28;20046;-64
2021/12/29 06:03:15;;;;;;;30.35;10.68;;;;;;;-149.78;100.00;50635.72;5114639;28;20489;-65
2021/12/29 06:05:40;;;;;;;22.65;9.35;;;;;;;-149.78;100.00;50690.50;5114681;28;20110;-65
2021/12/29 06:08:08;;;;;;;24.83;9.48;;;;;;;-149.78;100.00;50643.56;5114678;28;20488;-65
2021/12/29 06:10:34;;;;;;;23.95;10.13;;;;;;;-149.78;100.00;50641.59;5096224;28;20043;-64
2021/12/29 06:13:00;;;;;;;27.98;10.90;;;;;;;-149.78;100.00;50635.72;5114268;28;20378;-64
2021/12/29 06:15:26;;;;;;;24.45;10.90;;;;;;;-149.78;100.00;50651.38;5114226;28;20036;-65
2021/12/29 06:17:53;;;;;;;28.40;11.10;;;;;;;-149.78;100.00;50655.28;5113769;28;20044;-65
2021/12/29 06:20:18;;;;;;;26.60;10.50;;;;;;;-149.78;100.00;50668.97;5113966;28;20486;-65
2021/12/29 06:22:44;;;;;;;27.85;10.90;;;;;;;-149.78;100.00;50667.03;5113906;28;20032;-64
2021/12/29 06:25:13;;;;;;;27.60;11.25;;;;;;;-149.78;100.00;50670.94;5113991;28;20035;-64
2021/12/29 06:27:39;;;;;;;26.77;11.23;;;;;;;-149.78;100.00;50659.19;5113841;28;20032;-64
2021/12/29 06:30:06;;;;;;;30.58;10.82;;;;;;;-149.78;100.00;50670.94;5113923;28;20059;-64
2021/12/29 06:32:32;;;;;;;28.40;11.02;;;;;;;-149.78;100.00;50670.94;5113761;28;20036;-65
2021/12/29 06:34:58;;;;;;;27.73;11.15;;;;;;;-149.78;100.00;50643.56;5113828;28;20081;-64
2021/12/29 06:37:24;;;;;;;29.02;11.52;;;;;;;-149.78;100.00;50651.38;5114263;28;20118;-65
2021/12/29 06:39:50;;;;;;;31.33;13.00;;;;;;;-149.78;100.00;50672.91;5114093;28;20118;-64
2021/12/29 06:42:16;;;;;;;37.45;14.10;;;;;;;-149.78;100.00;50631.81;5113971;28;20462;-65
2021/12/29 06:44:43;;;;;;;34.17;13.40;;;;;;;-149.78;100.00;50678.75;5113955;28;20034;-65
2021/12/29 06:47:09;;;;;;;38.47;14.57;;;;;;;-149.78;100.00;50643.56;5114161;28;20059;-65
2021/12/29 06:49:35;;;;;;;34.42;14.13;;;;;;;-149.78;100.00;50659.19;5114103;28;20063;-64
2021/12/29 06:52:02;;;;;;;40.33;14.80;;;;;;;-149.78;100.00;50645.50;5113850;28;20093;-65
2021/12/29 06:54:29;;;;;;;37.38;15.50;;;;;;;-149.78;100.00;50639.66;5113861;28;20113;-64
2021/12/29 06:56:55;;;;;;;41.50;15.02;;;;;;;-149.78;100.00;50649.44;5114026;28;20036;-64
2021/12/29 06:59:20;;;;;;;33.28;13.57;;;;;;;-149.78;100.00;50670.94;5113954;28;20039;-64
2021/12/29 07:01:46;;;;;;;33.67;14.35;;;;;;;-149.78;100.00;50657.25;5113867;28;20036;-64
2021/12/29 07:04:13;;;;;;;40.47;14.15;;;;;;;-149.78;100.00;50639.66;5095688;28;20040;-64
2021/12/29 07:06:38;;;;;;;29.83;12.55;;;;;;;-149.78;100.00;50667.03;5113714;28;20073;-64
2021/12/29 07:09:05;;;;;;;30.02;12.65;;;;;;;-149.78;100.00;50678.75;5113482;28;20123;-64
2021/12/29 07:11:31;;;;;;;35.22;12.00;;;;;;;-149.78;100.00;50651.38;5113806;28;20114;-64
2021/12/29 07:13:59;;;;;;;28.55;12.27;;;;;;;-149.78;100.00;50659.19;5113712;28;20126;-64
2021/12/29 07:16:27;;;;;;;28.77;10.65;;;;;;;-149.78;100.00;50651.38;5096355;28;20428;-69
2021/12/29 07:18:53;;;;;;;26.92;10.95;;;;;;;-149.78;100.00;50655.28;5113564;28;20063;-69
2021/12/29 07:21:19;;;;;;;27.60;10.63;;;;;;;-149.78;100.00;50668.97;5095311;28;20494;-70
2021/12/29 07:23:44;;;;;;;25.60;10.10;;;;;;;-149.78;100.00;50702.22;5113497;28;20043;-70
2021/12/29 07:26:10;;;;;;;24.58;10.43;;;;;;;-149.78;100.00;50624.00;5113679;28;20034;-69
2021/12/29 07:28:37;;;;;;;27.48;10.30;;;;;;;-149.78;100.00;50678.75;5095222;28;20040;-70
2021/12/29 07:31:03;;;;;;;26.33;10.15;;;;;;;-149.78;100.00;50674.84;5113492;28;20075;-69
2021/12/29 07:33:28;;;;;;;25.13;10.63;;;;;;;-149.78;100.00;50690.50;5095249;28;20075;-69
2021/12/29 07:35:54;;;;;;;26.13;10.82;;;;;;;-149.78;100.00;50651.38;5113519;28;20031;-69
2021/12/29 07:38:19;;;;;;;22.98;10.43;;;;;;;-149.78;100.00;50667.03;5113600;28;20100;-69
2021/12/29 07:40:45;;;;;;;29.27;11.27;;;;;;;-149.78;100.00;50665.06;5095085;28;20040;-69
2021/12/29 07:43:12;;;;;;;26.42;10.55;;;;;;;-149.78;100.00;50643.56;5113567;28;20038;-69
2021/12/29 07:45:41;;;;;;;28.73;10.77;;;;;;;-149.78;100.00;50682.66;5113320;28;20039;-69
2021/12/29 07:48:09;;;;;;;22.55;10.02;;;;;;;-149.78;100.00;50668.97;5113502;28;20035;-69
2021/12/29 07:50:36;;;;;;;26.45;10.13;;;;;;;-149.78;100.00;50686.59;5113424;28;20035;-69
2021/12/29 07:53:02;;;;;;;29.05;10.57;;;;;;;-149.78;100.00;50667.03;5113541;28;20359;-70
2021/12/29 07:55:28;;;;;;;24.35;9.10;;;;;;;-149.78;100.00;50690.50;5116359;28;20043;-63
2021/12/29 07:57:54;;;;;;;29.95;10.20;;;;;;;-149.78;100.00;50659.19;5117397;28;20028;-69
2021/12/29 08:00:20;;;;;;;25.55;10.57;;;;;;;-149.78;100.00;50678.75;5117080;28;20043;-64
2021/12/29 08:02:47;;;;;;;30.90;11.73;;;;;;;-149.78;100.00;50686.59;5098835;28;20032;-64
2021/12/29 08:05:13;;;;;;;28.85;10.77;;;;;;;-149.78;100.00;50663.13;5117084;28;20040;-64
2021/12/29 08:07:39;;;;;;;25.58;11.43;;;;;;;-149.78;100.00;50678.75;5116939;28;20371;-64
2021/12/29 08:10:06;;;;;;;30.70;10.82;;;;;;;-149.78;100.00;50620.09;5116834;28;20047;-64
2021/12/29 08:12:32;;;;;;;25.08;11.93;;;;;;;-149.78;100.00;50686.59;5098535;28;20028;-64
2021/12/29 08:14:58;;;;;;;30.65;11.45;;;;;;;-149.78;100.00;50663.13;5117055;28;20054;-64
2021/12/29 08:17:24;;;;;;;36.97;11.80;;;;;;;-149.78;100.00;50690.50;5116762;28;20471;-64
2021/12/29 08:19:50;;;;;;;26.10;11.65;;;;;;;-149.78;100.00;50678.75;5116611;28;20096;-64
2021/12/29 08:22:17;;;;;;;31.65;11.70;;;;;;;-149.78;100.00;50655.28;5116933;28;20454;-64
2021/12/29 08:24:42;;;;;;;36.20;11.88;;;;;;;-149.78;100.00;50653.34;5116600;28;20107;-64
2021/12/29 08:27:10;;;;;;;33.25;12.77;;;;;;;-149.78;100.00;50641.59;5115413;28;20077;-64
2021/12/29 08:29:37;;;;;;;37.03;12.13;;;;;;;-149.78;100.00;50686.59;5115578;28;20362;-64
2021/12/29 08:32:03;;;;;;;35.00;12.45;;;;;;;-149.78;100.00;50688.53;5097286;28;20039;-64
2021/12/29 08:34:29;;;;;;;34.95;12.40;;;;;;;-149.78;100.00;50663.13;5116551;28;20446;-63
2021/12/29 08:36:55;;;;;;;31.55;12.43;;;;;;;-149.78;100.00;50678.75;5098327;28;20042;-64
2021/12/29 08:39:21;;;;;;;36.22;12.93;;;;;;;-149.78;100.00;50700.28;5116538;28;20131;-64
2021/12/29 08:41:48;;;;;;;34.58;13.82;;;;;;;-149.78;100.00;50667.03;5116424;28;20054;-64
2021/12/29 08:44:15;;;;;;;31.98;13.52;;;;;;;-149.78;100.00;50659.19;5116454;28;20352;-64
2021/12/29 08:46:41;;;;;;;40.70;13.07;;;;;;;-149.78;100.00;50670.94;5116185;28;20039;-64
2021/12/29 08:49:07;;;;;;;30.45;12.60;;;;;;;-149.78;100.00;50667.03;5116121;28;20078;-64
2021/12/29 08:51:32;;;;;;;31.75;12.20;;;;;;;-149.78;100.00;50647.47;5116126;28;20035;-64
2021/12/29 08:53:59;;;;;;;32.85;12.57;;;;;;;-149.78;100.00;50678.75;5116288;28;20027;-64
2021/12/29 08:56:25;;;;;;;33.10;12.10;;;;;;;-149.78;100.00;50655.28;5097882;28;20443;-64
2021/12/29 08:58:53;;;;;;;33.20;12.63;;;;;;;-149.78;100.00;50639.66;5114521;28;20071;-64
2021/12/29 09:01:20;;;;;;;31.00;12.05;;;;;;;-149.78;100.00;50647.47;5095766;28;20415;-63
2021/12/29 09:03:47;;;;;;;29.65;11.20;;;;;;;-149.78;100.00;50678.75;5114816;28;20039;-63
2021/12/29 09:06:13;;;;;;;27.60;10.77;;;;;;;-149.78;100.00;50661.16;5113849;28;20036;-65
2021/12/29 09:08:38;;;;;;;29.05;10.73;;;;;;;-149.78;100.00;50655.28;5113680;28;20035;-65
2021/12/29 09:11:04;;;;;;;30.40;10.82;;;;;;;-149.78;100.00;50647.47;5112938;28;20050;-66
2021/12/29 09:13:30;;;;;;;28.20;10.48;;;;;;;-149.78;100.00;50655.28;5112431;28;20095;-67
2021/12/29 09:15:57;;;;;;;20.25;9.15;;;;;;;-149.78;100.00;50682.66;5111742;28;20153;-66
2021/12/29 09:18:24;;;;;;;24.45;9.40;;;;;;;-149.78;100.00;50682.66;5092170;28;20039;-66
2021/12/29 09:20:51;;;;;;;22.88;9.32;;;;;;;-149.78;100.00;50653.34;5112256;28;20058;-66
2021/12/29 09:23:17;;;;;;;23.13;9.52;;;;;;;-149.78;100.00;50643.56;5111456;28;20525;-67
2021/12/29 09:25:46;;;;;;;23.95;9.85;;;;;;;-149.78;100.00;50631.81;5111812;28;20031;-66
2021/12/29 09:28:16;;;;;;;28.67;9.80;;;;;;;-149.78;100.00;50694.41;5109789;28;20470;-67
2021/12/29 09:30:43;;;;;;;30.10;10.35;;;;;;;-149.78;100.00;50686.59;5113208;28;20033;-67
2021/12/29 09:33:10;;;;;;;27.58;9.90;;;;;;;-149.78;100.00;50659.19;5093748;28;20533;-67
2021/12/29 09:35:37;;;;;;;26.02;9.93;;;;;;;-149.78;100.00;50682.66;5113215;28;20028;-67
2021/12/29 09:38:05;;;;;;;20.70;8.65;;;;;;;-149.78;100.00;50643.56;5114204;28;20032;-67
2021/12/29 09:40:31;;;;;;;21.90;8.20;;;;;;;-149.78;100.00;50661.16;5113333;28;20034;-67
2021/12/29 09:42:58;;;;;;;20.60;8.70;;;;;;;-149.78;100.00;50659.19;5094152;28;20503;-69
2021/12/29 09:45:25;;;;;;;18.52;7.38;;;;;;;-149.78;100.00;50637.69;5113650;28;20035;-69
2021/12/29 09:47:51;;;;;;;18.15;7.80;;;;;;;-149.78;100.00;50651.38;5113794;28;20027;-69
2021/12/29 09:50:19;;;;;;;18.25;7.63;;;;;;;-149.78;100.00;50631.81;5114041;28;20060;-69
2021/12/29 09:52:46;;;;;;;19.80;7.40;;;;;;;-149.78;100.00;50651.38;5113720;28;20473;-69
2021/12/29 09:55:19;;;;;;;18.48;7.05;;;;;;;-149.78;100.00;50627.91;5114451;28;20034;-69
2021/12/29 09:57:48;;;;;;;14.25;5.93;;;;;;;-149.78;100.00;50635.72;5113243;28;20119;-69
2021/12/29 10:00:28;;;;;;;14.10;6.13;;;;;;;-149.78;100.00;50622.03;5095526;28;20032;-69
2021/12/29 10:02:57;;;;;;;12.43;5.65;;;;;;;-149.78;100.00;50641.59;5111573;28;20088;-68
2021/12/29 10:05:27;;;;;;;11.95;5.75;;;;;;;-149.78;100.00;50635.72;5111264;28;20076;-68
2021/12/29 10:08:06;;;;;;;14.63;5.28;;;;;;;-149.78;100.00;50667.03;5112912;28;20119;-69
2021/12/29 10:10:35;;;;;;;13.77;5.72;;;;;;;-149.78;100.00;50651.38;5079371;28;20055;-67
2021/12/29 10:13:01;;;;;;;13.48;5.03;;;;;;;-149.78;100.00;50657.25;5089081;28;20059;-67
2021/12/29 10:15:36;;;;;;;13.15;5.20;;;;;;;-149.78;100.00;50616.19;5085610;28;20564;-68
2021/12/29 10:18:23;;;;;;;8.52;4.72;;;;;;;-149.78;100.00;50610.31;5089226;28;20119;-69
2021/12/29 10:20:59;;;;;;;14.10;4.32;;;;;;;-149.78;100.00;50627.91;5089658;28;20114;-69
2021/12/29 10:23:40;;;;;;;9.40;4.22;;;;;;;-149.78;100.00;50631.81;5106330;28;20028;-69
2021/12/29 10:26:09;;;;;;;9.20;3.50;;;;;;;-149.78;100.00;50633.78;5090785;28;20054;-69
2021/12/29 10:28:40;;;;;;;10.23;4.13;;;;;;;-149.78;100.00;50667.03;5090823;28;20028;-69
2021/12/29 10:31:07;;;;;;;9.23;4.30;;;;;;;-149.78;100.00;50631.81;5090641;28;20031;-68
2021/12/29 10:33:41;;;;;;;9.23;3.55;;;;;;;-149.78;100.00;50622.03;5091769;28;20024;-68
2021/12/29 10:36:12;;;;;;;8.50;4.60;;;;;;;-149.78;100.00;50616.19;5091259;28;20032;-67
2021/12/29 10:38:38;;;;;;;8.57;3.10;;;;;;;-149.78;100.00;50639.66;5090545;28;20494;-68
2021/12/29 10:41:04;;;;;;;4.55;2.50;;;;;;;-149.78;100.00;50661.16;5090560;28;20039;-67
2021/12/29 10:43:30;;;;;;;4.97;2.58;;;;;;;-149.78;100.00;50631.81;5091091;28;20059;-68
2021/12/29 10:45:57;;;;;;;3.83;2.30;;;;;;;-149.78;100.00;50625.94;5090436;28;20035;-68
2021/12/29 10:48:28;;;;;;;4.13;2.00;;;;;;;-149.78;100.00;50670.94;5089725;28;20434;-68
2021/12/29 10:51:08;;;;;;;1.97;1.43;;;;;;;-149.78;100.00;50616.19;5090631;28;20101;-68
2021/12/29 10:53:39;;;;;;;3.33;1.90;;;;;;;-149.78;100.00;50616.19;5090489;28;20028;-68
2021/12/29 10:56:06;;;;;;;;;;;;;;;-149.78;100.00;50639.66;5093351;28;20031;-66
2021/12/29 10:58:34;;;;;;;3.38;1.90;;;;;;;-149.78;100.00;50639.66;5092848;28;20274;-66
2021/12/29 11:01:11;;;;;;;3.28;2.00;;;;;;;-149.78;100.00;50631.81;5092584;28;20040;-66
2021/12/29 11:03:53;;;;;;;4.63;2.08;;;;;;;-149.78;100.00;50602.47;5092976;28;20036;-67
2021/12/29 11:06:25;;;;;;;3.88;1.92;;;;;;;-149.78;100.00;50624.00;5092222;28;20096;-67
2021/12/29 11:08:59;;;;;;;4.57;2.08;;;;;;;-149.78;100.00;50612.25;5092461;28;20121;-66